sensor_id;sensor_type;location;lat;lon;timestamp;temperature;humidity
41437;DHT22;27178;49.460;10.850;2024-02-21T00:00:35;11.40;73.90
41437;DHT22;27178;49.460;10.850;2024-02-21T00:03:05;11.40;74.10
41437;DHT22;27178;49.460;10.850;2024-02-21T00:05:33;11.30;74.30
41437;DHT22;27178;49.460;10.850;2024-02-21T00:08:03;11.30;74.20
41437;DHT22;27178;49.460;10.850;2024-02-21T00:10:31;11.30;74.30
41437;DHT22;27178;49.460;10.850;2024-02-21T00:13:00;11.30;74.20
41437;DHT22;27178;49.460;10.850;2024-02-21T00:15:28;11.30;74.20
41437;DHT22;27178;49.460;10.850;2024-02-21T00:17:57;11.40;74.30
41437;DHT22;27178;49.460;10.850;2024-02-21T00:20:25;11.30;74.30
41437;DHT22;27178;49.460;10.850;2024-02-21T00:22:54;11.40;74.50
41437;DHT22;27178;49.460;10.850;2024-02-21T00:25:23;11.30;74.60
41437;DHT22;27178;49.460;10.850;2024-02-21T00:27:52;11.30;74.70
41437;DHT22;27178;49.460;10.850;2024-02-21T00:30:20;11.40;74.80
41437;DHT22;27178;49.460;10.850;2024-02-21T00:32:49;11.30;74.70
41437;DHT22;27178;49.460;10.850;2024-02-21T00:35:18;11.30;74.60
41437;DHT22;27178;49.460;10.850;2024-02-21T00:37:46;11.30;74.50
41437;DHT22;27178;49.460;10.850;2024-02-21T00:40:14;11.30;74.50
41437;DHT22;27178;49.460;10.850;2024-02-21T00:42:48;11.30;74.60
41437;DHT22;27178;49.460;10.850;2024-02-21T00:45:17;12.90;75.80
41437;DHT22;27178;49.460;10.850;2024-02-21T00:47:45;11.30;74.60
41437;DHT22;27178;49.460;10.850;2024-02-21T00:50:14;11.30;74.60
41437;DHT22;27178;49.460;10.850;2024-02-21T00:52:42;11.30;74.60
41437;DHT22;27178;49.460;10.850;2024-02-21T00:55:11;11.30;75.60
41437;DHT22;27178;49.460;10.850;2024-02-21T00:57:39;11.30;74.70
41437;DHT22;27178;49.460;10.850;2024-02-21T01:00:10;11.30;74.60
41437;DHT22;27178;49.460;10.850;2024-02-21T01:02:38;11.30;74.90
41437;DHT22;27178;49.460;10.850;2024-02-21T01:05:07;11.30;74.90
41437;DHT22;27178;49.460;10.850;2024-02-21T01:07:35;11.30;75.00
41437;DHT22;27178;49.460;10.850;2024-02-21T01:10:05;11.30;75.10
41437;DHT22;27178;49.460;10.850;2024-02-21T01:12:33;11.30;74.90
41437;DHT22;27178;49.460;10.850;2024-02-21T01:15:02;11.30;74.80
41437;DHT22;27178;49.460;10.850;2024-02-21T01:17:32;11.30;74.90
41437;DHT22;27178;49.460;10.850;2024-02-21T01:20:00;11.30;74.90
41437;DHT22;27178;49.460;10.850;2024-02-21T01:22:29;11.30;75.10
41437;DHT22;27178;49.460;10.850;2024-02-21T01:24:57;11.30;75.00
41437;DHT22;27178;49.460;10.850;2024-02-21T01:27:26;11.30;75.10
41437;DHT22;27178;49.460;10.850;2024-02-21T01:29:54;11.30;75.30
41437;DHT22;27178;49.460;10.850;2024-02-21T01:32:23;11.30;75.20
41437;DHT22;27178;49.460;10.850;2024-02-21T01:34:52;11.30;75.30
41437;DHT22;27178;49.460;10.850;2024-02-21T01:37:21;11.30;75.40
41437;DHT22;27178;49.460;10.850;2024-02-21T01:39:49;11.30;75.30
41437;DHT22;27178;49.460;10.850;2024-02-21T01:42:18;11.30;75.40
41437;DHT22;27178;49.460;10.850;2024-02-21T01:44:46;11.20;75.30
41437;DHT22;27178;49.460;10.850;2024-02-21T01:47:14;11.20;75.30
41437;DHT22;27178;49.460;10.850;2024-02-21T01:49:43;11.20;75.20
41437;DHT22;27178;49.460;10.850;2024-02-21T01:52:14;11.20;75.30
41437;DHT22;27178;49.460;10.850;2024-02-21T01:54:44;11.20;76.40
41437;DHT22;27178;49.460;10.850;2024-02-21T01:57:14;11.20;75.50
41437;DHT22;27178;49.460;10.850;2024-02-21T01:59:43;11.20;75.30
41437;DHT22;27178;49.460;10.850;2024-02-21T02:02:12;11.20;75.30
41437;DHT22;27178;49.460;10.850;2024-02-21T02:04:40;11.20;75.50
41437;DHT22;27178;49.460;10.850;2024-02-21T02:07:09;11.20;75.50
41437;DHT22;27178;49.460;10.850;2024-02-21T02:09:39;11.20;75.30
41437;DHT22;27178;49.460;10.850;2024-02-21T02:12:08;11.20;75.40
41437;DHT22;27178;49.460;10.850;2024-02-21T02:14:36;11.20;75.60
41437;DHT22;27178;49.460;10.850;2024-02-21T02:17:05;11.20;75.70
41437;DHT22;27178;49.460;10.850;2024-02-21T02:19:33;11.20;75.70
41437;DHT22;27178;49.460;10.850;2024-02-21T02:22:14;11.20;75.70
41437;DHT22;27178;49.460;10.850;2024-02-21T02:24:44;11.20;76.00
41437;DHT22;27178;49.460;10.850;2024-02-21T02:27:13;11.20;75.80
41437;DHT22;27178;49.460;10.850;2024-02-21T02:29:41;11.10;75.90
41437;DHT22;27178;49.460;10.850;2024-02-21T02:32:09;11.10;75.90
41437;DHT22;27178;49.460;10.850;2024-02-21T02:34:38;11.20;75.90
41437;DHT22;27178;49.460;10.850;2024-02-21T02:37:06;11.10;75.90
41437;DHT22;27178;49.460;10.850;2024-02-21T02:39:35;11.10;75.90
41437;DHT22;27178;49.460;10.850;2024-02-21T02:42:05;11.10;76.10
41437;DHT22;27178;49.460;10.850;2024-02-21T02:44:33;11.10;76.10
41437;DHT22;27178;49.460;10.850;2024-02-21T02:47:02;11.10;76.00
41437;DHT22;27178;49.460;10.850;2024-02-21T02:49:30;11.10;75.90
41437;DHT22;27178;49.460;10.850;2024-02-21T02:51:58;11.10;75.90
41437;DHT22;27178;49.460;10.850;2024-02-21T02:54:27;11.10;75.90
41437;DHT22;27178;49.460;10.850;2024-02-21T02:56:55;11.10;76.00
41437;DHT22;27178;49.460;10.850;2024-02-21T02:59:25;11.10;76.10
41437;DHT22;27178;49.460;10.850;2024-02-21T03:01:53;11.10;76.10
41437;DHT22;27178;49.460;10.850;2024-02-21T03:04:21;11.10;76.10
41437;DHT22;27178;49.460;10.850;2024-02-21T03:06:49;11.10;76.10
41437;DHT22;27178;49.460;10.850;2024-02-21T03:09:18;11.10;76.10
41437;DHT22;27178;49.460;10.850;2024-02-21T03:11:46;11.10;76.10
41437;DHT22;27178;49.460;10.850;2024-02-21T03:14:15;11.10;76.10
41437;DHT22;27178;49.460;10.850;2024-02-21T03:16:44;11.00;76.20
41437;DHT22;27178;49.460;10.850;2024-02-21T03:19:13;11.10;76.10
41437;DHT22;27178;49.460;10.850;2024-02-21T03:21:41;11.10;76.10
41437;DHT22;27178;49.460;10.850;2024-02-21T03:24:09;11.10;76.30
41437;DHT22;27178;49.460;10.850;2024-02-21T03:26:37;11.00;76.40
41437;DHT22;27178;49.460;10.850;2024-02-21T03:29:06;11.00;76.30
41437;DHT22;27178;49.460;10.850;2024-02-21T03:31:34;11.00;76.30
41437;DHT22;27178;49.460;10.850;2024-02-21T03:34:04;11.00;76.40
41437;DHT22;27178;49.460;10.850;2024-02-21T03:36:32;11.00;76.40
41437;DHT22;27178;49.460;10.850;2024-02-21T03:39:01;11.00;76.40
41437;DHT22;27178;49.460;10.850;2024-02-21T03:41:29;11.00;76.50
41437;DHT22;27178;49.460;10.850;2024-02-21T03:43:57;11.00;76.40
41437;DHT22;27178;49.460;10.850;2024-02-21T03:46:25;11.00;76.60
41437;DHT22;27178;49.460;10.850;2024-02-21T03:48:53;11.00;76.50
41437;DHT22;27178;49.460;10.850;2024-02-21T03:51:23;11.00;77.30
41437;DHT22;27178;49.460;10.850;2024-02-21T03:53:51;11.00;76.60
41437;DHT22;27178;49.460;10.850;2024-02-21T03:56:20;11.00;76.60
41437;DHT22;27178;49.460;10.850;2024-02-21T03:58:48;11.00;76.60
41437;DHT22;27178;49.460;10.850;2024-02-21T04:01:17;11.00;76.50
41437;DHT22;27178;49.460;10.850;2024-02-21T04:03:46;11.10;77.50
41437;DHT22;27178;49.460;10.850;2024-02-21T04:06:14;11.10;76.50
41437;DHT22;27178;49.460;10.850;2024-02-21T04:08:45;11.00;76.40
41437;DHT22;27178;49.460;10.850;2024-02-21T04:11:13;11.10;76.60
41437;DHT22;27178;49.460;10.850;2024-02-21T04:13:41;11.10;76.60
41437;DHT22;27178;49.460;10.850;2024-02-21T04:16:10;11.10;76.60
41437;DHT22;27178;49.460;10.850;2024-02-21T04:18:39;11.10;76.60
41437;DHT22;27178;49.460;10.850;2024-02-21T04:21:08;11.10;76.60
41437;DHT22;27178;49.460;10.850;2024-02-21T04:23:37;11.00;76.60
41437;DHT22;27178;49.460;10.850;2024-02-21T04:26:07;11.00;76.70
41437;DHT22;27178;49.460;10.850;2024-02-21T04:28:36;11.00;76.90
41437;DHT22;27178;49.460;10.850;2024-02-21T04:31:04;11.00;77.00
41437;DHT22;27178;49.460;10.850;2024-02-21T04:33:32;11.00;77.20
41437;DHT22;27178;49.460;10.850;2024-02-21T04:36:01;11.00;77.50
41437;DHT22;27178;49.460;10.850;2024-02-21T04:38:30;10.90;77.40
41437;DHT22;27178;49.460;10.850;2024-02-21T04:40:58;10.90;77.50
41437;DHT22;27178;49.460;10.850;2024-02-21T04:43:28;11.00;77.70
41437;DHT22;27178;49.460;10.850;2024-02-21T04:45:56;11.00;77.70
41437;DHT22;27178;49.460;10.850;2024-02-21T04:48:24;11.00;77.70
41437;DHT22;27178;49.460;10.850;2024-02-21T04:50:53;11.00;77.70
41437;DHT22;27178;49.460;10.850;2024-02-21T04:53:21;10.90;77.80
41437;DHT22;27178;49.460;10.850;2024-02-21T04:55:49;10.90;77.80
41437;DHT22;27178;49.460;10.850;2024-02-21T04:58:17;10.90;77.90
41437;DHT22;27178;49.460;10.850;2024-02-21T05:00:47;10.90;77.90
41437;DHT22;27178;49.460;10.850;2024-02-21T05:03:15;10.80;78.00
41437;DHT22;27178;49.460;10.850;2024-02-21T05:05:44;10.90;78.10
41437;DHT22;27178;49.460;10.850;2024-02-21T05:08:12;10.90;78.10
41437;DHT22;27178;49.460;10.850;2024-02-21T05:10:40;10.90;78.10
41437;DHT22;27178;49.460;10.850;2024-02-21T05:13:09;10.80;77.90
41437;DHT22;27178;49.460;10.850;2024-02-21T05:15:37;10.80;78.00
41437;DHT22;27178;49.460;10.850;2024-02-21T05:18:07;10.80;78.10
41437;DHT22;27178;49.460;10.850;2024-02-21T05:20:35;10.80;78.10
41437;DHT22;27178;49.460;10.850;2024-02-21T05:23:04;10.80;78.30
41437;DHT22;27178;49.460;10.850;2024-02-21T05:25:32;10.80;78.30
41437;DHT22;27178;49.460;10.850;2024-02-21T05:28:01;10.80;78.40
41437;DHT22;27178;49.460;10.850;2024-02-21T05:30:30;10.80;78.40
41437;DHT22;27178;49.460;10.850;2024-02-21T05:32:58;10.80;78.50
41437;DHT22;27178;49.460;10.850;2024-02-21T05:35:28;10.70;78.40
41437;DHT22;27178;49.460;10.850;2024-02-21T05:37:57;10.70;78.50
41437;DHT22;27178;49.460;10.850;2024-02-21T05:40:26;10.70;78.60
41437;DHT22;27178;49.460;10.850;2024-02-21T05:42:54;10.70;78.60
41437;DHT22;27178;49.460;10.850;2024-02-21T05:45:24;10.70;79.50
41437;DHT22;27178;49.460;10.850;2024-02-21T05:47:52;10.70;78.60
41437;DHT22;27178;49.460;10.850;2024-02-21T05:50:21;10.70;78.70
41437;DHT22;27178;49.460;10.850;2024-02-21T05:52:53;10.70;78.70
41437;DHT22;27178;49.460;10.850;2024-02-21T05:55:22;10.70;78.80
41437;DHT22;27178;49.460;10.850;2024-02-21T05:57:53;10.70;78.70
41437;DHT22;27178;49.460;10.850;2024-02-21T06:00:22;10.70;78.80
41437;DHT22;27178;49.460;10.850;2024-02-21T06:02:50;10.70;78.80
41437;DHT22;27178;49.460;10.850;2024-02-21T06:05:18;10.60;78.70
41437;DHT22;27178;49.460;10.850;2024-02-21T06:07:47;10.60;78.90
41437;DHT22;27178;49.460;10.850;2024-02-21T06:10:17;10.60;78.90
41437;DHT22;27178;49.460;10.850;2024-02-21T06:12:45;10.60;78.90
41437;DHT22;27178;49.460;10.850;2024-02-21T06:15:14;10.60;78.80
41437;DHT22;27178;49.460;10.850;2024-02-21T06:17:42;10.60;78.80
41437;DHT22;27178;49.460;10.850;2024-02-21T06:20:11;10.60;78.80
41437;DHT22;27178;49.460;10.850;2024-02-21T06:22:40;10.60;78.90
41437;DHT22;27178;49.460;10.850;2024-02-21T06:25:08;10.60;79.00
41437;DHT22;27178;49.460;10.850;2024-02-21T06:27:38;10.50;79.10
41437;DHT22;27178;49.460;10.850;2024-02-21T06:30:07;10.50;79.10
41437;DHT22;27178;49.460;10.850;2024-02-21T06:32:36;10.50;79.10
41437;DHT22;27178;49.460;10.850;2024-02-21T06:35:05;10.50;79.00
41437;DHT22;27178;49.460;10.850;2024-02-21T06:37:34;10.50;79.00
41437;DHT22;27178;49.460;10.850;2024-02-21T06:40:03;10.50;79.10
41437;DHT22;27178;49.460;10.850;2024-02-21T06:42:31;10.50;79.10
41437;DHT22;27178;49.460;10.850;2024-02-21T06:45:01;10.50;79.00
41437;DHT22;27178;49.460;10.850;2024-02-21T06:47:29;10.50;79.10
41437;DHT22;27178;49.460;10.850;2024-02-21T06:49:57;10.50;79.20
41437;DHT22;27178;49.460;10.850;2024-02-21T06:52:26;10.50;79.10
41437;DHT22;27178;49.460;10.850;2024-02-21T06:54:54;10.50;79.10
41437;DHT22;27178;49.460;10.850;2024-02-21T06:57:22;10.50;79.10
41437;DHT22;27178;49.460;10.850;2024-02-21T06:59:51;10.50;79.20
41437;DHT22;27178;49.460;10.850;2024-02-21T07:02:20;10.50;79.20
41437;DHT22;27178;49.460;10.850;2024-02-21T07:04:49;10.50;79.20
41437;DHT22;27178;49.460;10.850;2024-02-21T07:07:17;10.50;79.20
41437;DHT22;27178;49.460;10.850;2024-02-21T07:09:45;10.50;79.30
41437;DHT22;27178;49.460;10.850;2024-02-21T07:12:15;10.50;79.20
41437;DHT22;27178;49.460;10.850;2024-02-21T07:14:44;10.50;79.00
41437;DHT22;27178;49.460;10.850;2024-02-21T07:17:13;10.50;79.00
41437;DHT22;27178;49.460;10.850;2024-02-21T07:19:42;10.50;79.20
41437;DHT22;27178;49.460;10.850;2024-02-21T07:22:11;10.50;79.40
41437;DHT22;27178;49.460;10.850;2024-02-21T07:24:39;10.50;79.30
41437;DHT22;27178;49.460;10.850;2024-02-21T07:27:07;10.50;79.20
41437;DHT22;27178;49.460;10.850;2024-02-21T07:29:35;10.50;79.30
41437;DHT22;27178;49.460;10.850;2024-02-21T07:32:04;10.50;79.30
41437;DHT22;27178;49.460;10.850;2024-02-21T07:34:32;10.50;79.20
41437;DHT22;27178;49.460;10.850;2024-02-21T07:37:02;10.60;79.30
41437;DHT22;27178;49.460;10.850;2024-02-21T07:39:31;10.60;79.50
41437;DHT22;27178;49.460;10.850;2024-02-21T07:41:59;10.60;79.50
41437;DHT22;27178;49.460;10.850;2024-02-21T07:44:27;10.60;79.50
41437;DHT22;27178;49.460;10.850;2024-02-21T07:46:56;10.60;79.50
41437;DHT22;27178;49.460;10.850;2024-02-21T07:49:25;10.70;79.30
41437;DHT22;27178;49.460;10.850;2024-02-21T07:51:53;10.70;79.20
41437;DHT22;27178;49.460;10.850;2024-02-21T07:54:23;10.70;79.10
41437;DHT22;27178;49.460;10.850;2024-02-21T07:56:51;10.70;79.00
41437;DHT22;27178;49.460;10.850;2024-02-21T07:59:19;10.70;78.60
41437;DHT22;27178;49.460;10.850;2024-02-21T08:01:48;10.80;78.80
41437;DHT22;27178;49.460;10.850;2024-02-21T08:04:16;10.80;78.90
41437;DHT22;27178;49.460;10.850;2024-02-21T08:06:44;10.80;78.80
41437;DHT22;27178;49.460;10.850;2024-02-21T08:09:15;10.80;78.70
41437;DHT22;27178;49.460;10.850;2024-02-21T08:11:45;10.80;78.30
41437;DHT22;27178;49.460;10.850;2024-02-21T08:14:14;10.80;78.20
41437;DHT22;27178;49.460;10.850;2024-02-21T08:16:47;10.80;77.90
41437;DHT22;27178;49.460;10.850;2024-02-21T08:19:15;10.80;78.10
41437;DHT22;27178;49.460;10.850;2024-02-21T08:21:44;10.80;78.10
41437;DHT22;27178;49.460;10.850;2024-02-21T08:24:14;10.80;78.10
41437;DHT22;27178;49.460;10.850;2024-02-21T08:26:42;10.80;78.30
41437;DHT22;27178;49.460;10.850;2024-02-21T08:29:13;10.90;78.30
41437;DHT22;27178;49.460;10.850;2024-02-21T08:31:41;10.90;78.30
41437;DHT22;27178;49.460;10.850;2024-02-21T08:34:09;10.90;78.50
41437;DHT22;27178;49.460;10.850;2024-02-21T08:36:40;10.90;78.30
41437;DHT22;27178;49.460;10.850;2024-02-21T08:39:08;11.00;78.40
41437;DHT22;27178;49.460;10.850;2024-02-21T08:41:37;11.00;78.60
41437;DHT22;27178;49.460;10.850;2024-02-21T08:44:24;11.10;78.50
41437;DHT22;27178;49.460;10.850;2024-02-21T08:46:54;11.10;77.90
41437;DHT22;27178;49.460;10.850;2024-02-21T08:49:23;11.20;77.70
41437;DHT22;27178;49.460;10.850;2024-02-21T08:52:00;11.20;77.80
41437;DHT22;27178;49.460;10.850;2024-02-21T08:54:29;11.20;77.70
41437;DHT22;27178;49.460;10.850;2024-02-21T08:56:57;11.20;77.50
41437;DHT22;27178;49.460;10.850;2024-02-21T08:59:27;11.20;77.60
41437;DHT22;27178;49.460;10.850;2024-02-21T09:01:55;11.30;77.70
41437;DHT22;27178;49.460;10.850;2024-02-21T09:04:24;11.30;77.70
41437;DHT22;27178;49.460;10.850;2024-02-21T09:06:53;11.40;77.60
41437;DHT22;27178;49.460;10.850;2024-02-21T09:09:21;11.40;77.50
41437;DHT22;27178;49.460;10.850;2024-02-21T09:11:53;11.40;77.40
41437;DHT22;27178;49.460;10.850;2024-02-21T09:14:22;11.40;77.50
41437;DHT22;27178;49.460;10.850;2024-02-21T09:16:52;11.50;77.50
41437;DHT22;27178;49.460;10.850;2024-02-21T09:19:20;11.50;77.40
41437;DHT22;27178;49.460;10.850;2024-02-21T09:21:48;11.50;77.50
41437;DHT22;27178;49.460;10.850;2024-02-21T09:24:17;11.60;77.60
41437;DHT22;27178;49.460;10.850;2024-02-21T09:26:46;11.60;78.50
41437;DHT22;27178;49.460;10.850;2024-02-21T09:29:14;11.70;77.50
41437;DHT22;27178;49.460;10.850;2024-02-21T09:31:44;11.70;77.10
41437;DHT22;27178;49.460;10.850;2024-02-21T09:34:14;11.70;76.70
41437;DHT22;27178;49.460;10.850;2024-02-21T09:36:43;11.80;76.30
41437;DHT22;27178;49.460;10.850;2024-02-21T09:39:11;11.80;76.40
41437;DHT22;27178;49.460;10.850;2024-02-21T09:41:45;11.80;76.70
41437;DHT22;27178;49.460;10.850;2024-02-21T09:44:14;11.80;76.40
41437;DHT22;27178;49.460;10.850;2024-02-21T09:46:51;11.80;77.10
41437;DHT22;27178;49.460;10.850;2024-02-21T09:49:29;11.90;76.30
41437;DHT22;27178;49.460;10.850;2024-02-21T09:52:00;12.00;76.70
41437;DHT22;27178;49.460;10.850;2024-02-21T09:54:30;12.00;75.90
41437;DHT22;27178;49.460;10.850;2024-02-21T09:56:59;12.00;76.10
41437;DHT22;27178;49.460;10.850;2024-02-21T09:59:28;12.00;76.40
41437;DHT22;27178;49.460;10.850;2024-02-21T10:01:57;12.10;76.30
41437;DHT22;27178;49.460;10.850;2024-02-21T10:04:30;12.10;76.40
41437;DHT22;27178;49.460;10.850;2024-02-21T10:06:59;12.10;76.40
41437;DHT22;27178;49.460;10.850;2024-02-21T10:09:28;12.20;76.50
41437;DHT22;27178;49.460;10.850;2024-02-21T10:12:08;12.20;76.10
41437;DHT22;27178;49.460;10.850;2024-02-21T10:14:37;12.30;75.70
41437;DHT22;27178;49.460;10.850;2024-02-21T10:17:06;12.30;75.70
41437;DHT22;27178;49.460;10.850;2024-02-21T10:19:39;12.30;75.60
41437;DHT22;27178;49.460;10.850;2024-02-21T10:22:08;12.40;75.60
41437;DHT22;27178;49.460;10.850;2024-02-21T10:24:37;12.40;75.50
41437;DHT22;27178;49.460;10.850;2024-02-21T10:27:09;12.40;75.60
41437;DHT22;27178;49.460;10.850;2024-02-21T10:29:41;12.50;74.40
41437;DHT22;27178;49.460;10.850;2024-02-21T10:32:10;12.50;73.80
41437;DHT22;27178;49.460;10.850;2024-02-21T10:34:41;12.50;73.80
41437;DHT22;27178;49.460;10.850;2024-02-21T10:37:11;12.50;73.30
41437;DHT22;27178;49.460;10.850;2024-02-21T10:39:40;12.60;73.00
41437;DHT22;27178;49.460;10.850;2024-02-21T10:42:11;12.60;73.70
41437;DHT22;27178;49.460;10.850;2024-02-21T10:44:40;12.60;73.80
41437;DHT22;27178;49.460;10.850;2024-02-21T10:47:11;12.70;73.50
41437;DHT22;27178;49.460;10.850;2024-02-21T10:49:44;12.70;73.50
41437;DHT22;27178;49.460;10.850;2024-02-21T10:52:20;12.70;72.90
41437;DHT22;27178;49.460;10.850;2024-02-21T10:54:55;12.80;73.60
41437;DHT22;27178;49.460;10.850;2024-02-21T10:57:25;12.80;73.60
41437;DHT22;27178;49.460;10.850;2024-02-21T10:59:55;12.90;73.40
41437;DHT22;27178;49.460;10.850;2024-02-21T11:02:24;12.90;72.90
41437;DHT22;27178;49.460;10.850;2024-02-21T11:04:55;12.90;73.50
41437;DHT22;27178;49.460;10.850;2024-02-21T11:07:24;13.00;72.30
41437;DHT22;27178;49.460;10.850;2024-02-21T11:09:53;13.00;73.00
41437;DHT22;27178;49.460;10.850;2024-02-21T11:12:23;13.00;72.10
41437;DHT22;27178;49.460;10.850;2024-02-21T11:14:52;13.10;72.20
41437;DHT22;27178;49.460;10.850;2024-02-21T11:17:21;13.10;71.00
41437;DHT22;27178;49.460;10.850;2024-02-21T11:19:54;13.10;71.30
41437;DHT22;27178;49.460;10.850;2024-02-21T11:22:22;13.10;71.10
41437;DHT22;27178;49.460;10.850;2024-02-21T11:25:06;13.20;71.50
41437;DHT22;27178;49.460;10.850;2024-02-21T11:27:35;13.30;71.00
41437;DHT22;27178;49.460;10.850;2024-02-21T11:30:05;13.30;71.10
41437;DHT22;27178;49.460;10.850;2024-02-21T11:32:34;13.40;71.90
41437;DHT22;27178;49.460;10.850;2024-02-21T11:35:05;13.40;73.10
41437;DHT22;27178;49.460;10.850;2024-02-21T11:37:35;13.50;71.00
41437;DHT22;27178;49.460;10.850;2024-02-21T11:40:05;13.60;71.40
41437;DHT22;27178;49.460;10.850;2024-02-21T11:42:39;13.70;71.20
41437;DHT22;27178;49.460;10.850;2024-02-21T11:45:08;13.70;71.60
41437;DHT22;27178;49.460;10.850;2024-02-21T11:47:36;13.80;71.00
41437;DHT22;27178;49.460;10.850;2024-02-21T11:50:11;13.90;70.80
41437;DHT22;27178;49.460;10.850;2024-02-21T11:52:43;14.00;70.60
41437;DHT22;27178;49.460;10.850;2024-02-21T11:55:12;14.00;71.30
41437;DHT22;27178;49.460;10.850;2024-02-21T11:57:42;14.00;71.00
41437;DHT22;27178;49.460;10.850;2024-02-21T12:00:15;14.10;70.40
41437;DHT22;27178;49.460;10.850;2024-02-21T12:02:45;14.20;70.50
41437;DHT22;27178;49.460;10.850;2024-02-21T12:05:14;14.30;70.40
41437;DHT22;27178;49.460;10.850;2024-02-21T12:07:43;14.40;68.70
41437;DHT22;27178;49.460;10.850;2024-02-21T12:10:13;14.40;69.10
41437;DHT22;27178;49.460;10.850;2024-02-21T12:12:41;14.50;68.80
41437;DHT22;27178;49.460;10.850;2024-02-21T12:15:09;14.50;68.40
41437;DHT22;27178;49.460;10.850;2024-02-21T12:17:39;14.60;68.20
41437;DHT22;27178;49.460;10.850;2024-02-21T12:20:08;14.60;68.40
41437;DHT22;27178;49.460;10.850;2024-02-21T12:22:41;14.70;68.90
41437;DHT22;27178;49.460;10.850;2024-02-21T12:25:16;14.80;68.80
41437;DHT22;27178;49.460;10.850;2024-02-21T12:27:46;14.80;67.60
41437;DHT22;27178;49.460;10.850;2024-02-21T12:30:16;14.90;68.10
41437;DHT22;27178;49.460;10.850;2024-02-21T12:32:45;14.90;67.30
41437;DHT22;27178;49.460;10.850;2024-02-21T12:35:13;15.00;67.50
41437;DHT22;27178;49.460;10.850;2024-02-21T12:37:43;15.00;66.40
41437;DHT22;27178;49.460;10.850;2024-02-21T12:40:12;15.10;67.30
41437;DHT22;27178;49.460;10.850;2024-02-21T12:42:42;15.10;67.00
41437;DHT22;27178;49.460;10.850;2024-02-21T12:45:10;15.20;66.60
41437;DHT22;27178;49.460;10.850;2024-02-21T12:47:39;15.30;66.60
41437;DHT22;27178;49.460;10.850;2024-02-21T12:50:08;15.30;66.60
41437;DHT22;27178;49.460;10.850;2024-02-21T12:52:36;15.30;66.10
41437;DHT22;27178;49.460;10.850;2024-02-21T12:55:07;15.40;66.10
41437;DHT22;27178;49.460;10.850;2024-02-21T12:57:38;15.40;66.20
41437;DHT22;27178;49.460;10.850;2024-02-21T13:00:07;15.50;65.90
41437;DHT22;27178;49.460;10.850;2024-02-21T13:02:38;15.50;66.70
41437;DHT22;27178;49.460;10.850;2024-02-21T13:05:07;15.60;67.00
41437;DHT22;27178;49.460;10.850;2024-02-21T13:07:35;15.60;66.90
41437;DHT22;27178;49.460;10.850;2024-02-21T13:10:06;15.70;65.40
41437;DHT22;27178;49.460;10.850;2024-02-21T13:12:35;15.80;65.50
41437;DHT22;27178;49.460;10.850;2024-02-21T13:15:04;15.80;64.90
41437;DHT22;27178;49.460;10.850;2024-02-21T13:17:32;15.90;65.70
41437;DHT22;27178;49.460;10.850;2024-02-21T13:20:01;15.90;65.50
41437;DHT22;27178;49.460;10.850;2024-02-21T13:22:30;16.00;64.20
41437;DHT22;27178;49.460;10.850;2024-02-21T13:24:58;16.00;64.70
41437;DHT22;27178;49.460;10.850;2024-02-21T13:27:28;16.00;65.10
41437;DHT22;27178;49.460;10.850;2024-02-21T13:29:57;16.00;63.80
41437;DHT22;27178;49.460;10.850;2024-02-21T13:32:25;16.00;61.60
41437;DHT22;27178;49.460;10.850;2024-02-21T13:34:54;16.00;62.60
41437;DHT22;27178;49.460;10.850;2024-02-21T13:37:23;15.90;62.70
41437;DHT22;27178;49.460;10.850;2024-02-21T13:39:51;15.90;62.90
41437;DHT22;27178;49.460;10.850;2024-02-21T13:42:20;15.90;62.70
41437;DHT22;27178;49.460;10.850;2024-02-21T13:44:49;15.80;62.80
41437;DHT22;27178;49.460;10.850;2024-02-21T13:47:18;15.80;61.90
41437;DHT22;27178;49.460;10.850;2024-02-21T13:49:48;15.80;61.80
41437;DHT22;27178;49.460;10.850;2024-02-21T13:52:16;15.70;63.20
41437;DHT22;27178;49.460;10.850;2024-02-21T13:54:47;15.70;61.40
41437;DHT22;27178;49.460;10.850;2024-02-21T13:57:16;15.70;61.30
41437;DHT22;27178;49.460;10.850;2024-02-21T13:59:44;15.60;62.10
41437;DHT22;27178;49.460;10.850;2024-02-21T14:02:14;15.60;62.20
41437;DHT22;27178;49.460;10.850;2024-02-21T14:04:42;15.50;59.90
41437;DHT22;27178;49.460;10.850;2024-02-21T14:07:11;15.50;59.80
41437;DHT22;27178;49.460;10.850;2024-02-21T14:09:39;15.50;59.90
41437;DHT22;27178;49.460;10.850;2024-02-21T14:12:07;15.50;60.30
41437;DHT22;27178;49.460;10.850;2024-02-21T14:14:35;15.50;60.50
41437;DHT22;27178;49.460;10.850;2024-02-21T14:17:06;15.50;61.50
41437;DHT22;27178;49.460;10.850;2024-02-21T14:19:36;15.50;62.20
41437;DHT22;27178;49.460;10.850;2024-02-21T14:22:04;15.50;62.70
41437;DHT22;27178;49.460;10.850;2024-02-21T14:24:33;15.50;63.30
41437;DHT22;27178;49.460;10.850;2024-02-21T14:27:01;15.60;62.00
41437;DHT22;27178;49.460;10.850;2024-02-21T14:29:30;15.60;61.20
41437;DHT22;27178;49.460;10.850;2024-02-21T14:31:58;15.60;61.70
41437;DHT22;27178;49.460;10.850;2024-02-21T14:34:27;15.60;61.70
41437;DHT22;27178;49.460;10.850;2024-02-21T14:36:57;15.60;62.00
41437;DHT22;27178;49.460;10.850;2024-02-21T14:39:26;15.60;61.30
41437;DHT22;27178;49.460;10.850;2024-02-21T14:41:54;15.60;62.20
41437;DHT22;27178;49.460;10.850;2024-02-21T14:44:22;15.60;61.70
41437;DHT22;27178;49.460;10.850;2024-02-21T14:46:51;15.60;62.50
41437;DHT22;27178;49.460;10.850;2024-02-21T14:49:19;15.60;61.60
41437;DHT22;27178;49.460;10.850;2024-02-21T14:51:48;15.50;62.40
41437;DHT22;27178;49.460;10.850;2024-02-21T14:54:17;15.50;62.70
41437;DHT22;27178;49.460;10.850;2024-02-21T14:56:46;15.50;63.30
41437;DHT22;27178;49.460;10.850;2024-02-21T14:59:14;15.50;63.50
41437;DHT22;27178;49.460;10.850;2024-02-21T15:01:58;15.40;62.40
41437;DHT22;27178;49.460;10.850;2024-02-21T15:04:26;15.40;62.40
41437;DHT22;27178;49.460;10.850;2024-02-21T15:06:55;15.40;62.00
41437;DHT22;27178;49.460;10.850;2024-02-21T15:09:25;15.30;61.40
41437;DHT22;27178;49.460;10.850;2024-02-21T15:11:54;15.30;62.20
41437;DHT22;27178;49.460;10.850;2024-02-21T15:14:23;15.30;62.00
41437;DHT22;27178;49.460;10.850;2024-02-21T15:16:52;15.20;61.20
41437;DHT22;27178;49.460;10.850;2024-02-21T15:19:20;15.20;60.80
41437;DHT22;27178;49.460;10.850;2024-02-21T15:21:48;15.20;61.60
41437;DHT22;27178;49.460;10.850;2024-02-21T15:24:17;15.10;62.30
41437;DHT22;27178;49.460;10.850;2024-02-21T15:26:46;15.10;61.80